Time;durP1;ratioP1;P1;durP2;ratioP2;P2;SDS_P1;SDS_P2;PMS_P1;PMS_P2;Temp;Humidity;BMP_temperature;BMP_pressure;BME280_temperature;BME280_humidity;BME280_pressure;Samples;Min_cycle;Max_cycle;Signal;HPM_P1;HPM_P2
2021/10/08 00:00:31;;;;;;;20.98;6.35;;;;;;;;;;10283127;28;20037;-65
2021/10/08 00:05:30;;;;;;;15.93;7.28;;;;;;;;;;10281891;28;20045;-64
2021/10/08 00:10:29;;;;;;;18.52;6.60;;;;;;;;;;10282330;28;20454;-66
2021/10/08 00:15:29;;;;;;;17.63;7.28;;;;;;;;;;10282562;28;20045;-66
2021/10/08 00:20:27;;;;;;;16.33;6.53;;;;;;;;;;10282480;28;20421;-65
2021/10/08 00:25:25;;;;;;;17.95;6.40;;;;;;;;;;10281877;28;20485;-64
2021/10/08 00:30:24;;;;;;;19.08;7.10;;;;;;;;;;10281337;28;20510;-65
2021/10/08 00:35:24;;;;;;;18.95;7.32;;;;;;;;;;10281370;28;20540;-65
2021/10/08 00:40:22;;;;;;;24.58;7.43;;;;;;;;;;10278413;28;20049;-65
2021/10/08 00:45:20;;;;;;;18.58;6.43;;;;;;;;;;10281266;28;20045;-66
2021/10/08 00:50:19;;;;;;;15.45;7.38;;;;;;;;;;10279212;28;20048;-65
2021/10/08 00:55:19;;;;;;;14.82;6.00;;;;;;;;;;10280293;28;20410;-64
2021/10/08 01:00:18;;;;;;;17.75;7.50;;;;;;;;;;10278766;28;20617;-66
2021/10/08 01:05:16;;;;;;;20.05;7.00;;;;;;;;;;10279106;28;20052;-66
2021/10/08 01:10:14;;;;;;;19.25;7.60;;;;;;;;;;10278647;28;20093;-65
2021/10/08 01:15:14;;;;;;;13.25;6.43;;;;;;;;;;10278408;28;20049;-65
2021/10/08 01:20:20;;;;;;;16.92;8.27;;;;;;;;;;10276601;28;20053;-63
2021/10/08 01:25:23;;;;;;;21.20;7.90;;;;;;;;;;10278418;28;20056;-65
2021/10/08 01:30:22;;;;;;;17.25;7.60;;;;;;;;;;10277572;28;20064;-65
2021/10/08 01:35:22;;;;;;;16.80;6.63;;;;;;;;;;10277758;28;20425;-65
2021/10/08 01:40:24;;;;;;;25.33;6.82;;;;;;;;;;10278480;28;20072;-65
2021/10/08 01:45:30;;;;;;;14.18;7.38;;;;;;;;;;10276925;28;20052;-64
2021/10/08 01:50:30;;;;;;;17.65;7.60;;;;;;;;;;10276661;28;20088;-64
2021/10/08 01:55:29;;;;;;;18.27;6.63;;;;;;;;;;10276665;28;20071;-64
2021/10/08 02:00:33;;;;;;;17.20;8.20;;;;;;;;;;10276368;28;20052;-65
2021/10/08 02:05:50;;;;;;;15.90;7.65;;;;;;;;;;10275680;28;20092;-65
2021/10/08 02:10:49;;;;;;;18.27;7.50;;;;;;;;;;10274876;28;20060;-65
2021/10/08 02:15:47;;;;;;;20.60;7.43;;;;;;;;;;10274555;28;20056;-64
2021/10/08 02:20:45;;;;;;;19.92;7.20;;;;;;;;;;10274636;28;20041;-65
2021/10/08 02:25:49;;;;;;;19.15;8.30;;;;;;;;;;10275201;28;20055;-65
2021/10/08 02:30:47;;;;;;;22.52;7.93;;;;;;;;;;10274177;28;20115;-65
2021/10/08 02:35:47;;;;;;;26.15;8.95;;;;;;;;;;10273633;28;20064;-65
2021/10/08 02:40:46;;;;;;;25.00;8.07;;;;;;;;;;10273870;28;20048;-65
2021/10/08 02:45:45;;;;;;;22.02;8.52;;;;;;;;;;10274444;28;20405;-65
2021/10/08 02:50:44;;;;;;;20.08;7.80;;;;;;;;;;10274806;28;20084;-65
2021/10/08 02:55:43;;;;;;;20.77;8.13;;;;;;;;;;10274322;28;20048;-65
2021/10/08 03:00:41;;;;;;;20.40;7.78;;;;;;;;;;10273999;28;20060;-66
2021/10/08 03:05:41;;;;;;;25.70;7.07;;;;;;;;;;10275272;28;20052;-65
2021/10/08 03:10:40;;;;;;;18.10;7.00;;;;;;;;;;10274385;28;20171;-65
2021/10/08 03:15:38;;;;;;;24.50;7.03;;;;;;;;;;10273457;28;20414;-65
2021/10/08 03:20:37;;;;;;;20.20;7.50;;;;;;;;;;10274744;28;20048;-65
2021/10/08 03:25:37;;;;;;;32.88;8.10;;;;;;;;;;10285980;28;20048;-65
2021/10/08 03:30:36;;;;;;;19.08;7.45;;;;;;;;;;10286083;28;20095;-65
2021/10/08 03:35:42;;;;;;;15.40;7.55;;;;;;;;;;10286526;28;20526;-64
2021/10/08 03:40:45;;;;;;;25.20;9.40;;;;;;;;;;10285691;28;20517;-65
2021/10/08 03:45:49;;;;;;;18.77;9.02;;;;;;;;;;10286484;28;20502;-64
2021/10/08 03:50:47;;;;;;;20.10;8.52;;;;;;;;;;10283959;28;20495;-65
2021/10/08 03:55:47;;;;;;;22.17;10.07;;;;;;;;;;10285920;28;20421;-64
2021/10/08 04:00:47;;;;;;;30.25;9.35;;;;;;;;;;10284640;28;20068;-64
2021/10/08 04:05:46;;;;;;;46.20;11.13;;;;;;;;;;10283294;28;20049;-65
2021/10/08 04:10:46;;;;;;;32.78;9.40;;;;;;;;;;10284948;28;20059;-65
2021/10/08 04:15:46;;;;;;;25.02;8.70;;;;;;;;;;10283580;28;20049;-63
2021/10/08 04:20:45;;;;;;;26.80;9.73;;;;;;;;;;10285913;28;20041;-65
2021/10/08 04:25:45;;;;;;;26.83;10.63;;;;;;;;;;10284051;28;20067;-64
2021/10/08 04:30:45;;;;;;;23.75;10.48;;;;;;;;;;10283614;28;20120;-65
2021/10/08 04:35:45;;;;;;;28.80;10.13;;;;;;;;;;10277309;28;20418;-64
2021/10/08 04:40:44;;;;;;;25.08;8.95;;;;;;;;;;10274201;28;20108;-64
2021/10/08 04:45:43;;;;;;;28.65;9.18;;;;;;;;;;10275817;28;20076;-64
2021/10/08 04:50:42;;;;;;;25.50;8.63;;;;;;;;;;10276511;28;20084;-65
2021/10/08 04:55:42;;;;;;;29.42;9.95;;;;;;;;;;10277272;28;20063;-65
2021/10/08 05:00:42;;;;;;;23.92;10.07;;;;;;;;;;10277891;28;20451;-65
2021/10/08 05:05:46;;;;;;;31.05;10.32;;;;;;;;;;10274662;28;20049;-64
2021/10/08 05:10:49;;;;;;;24.48;9.63;;;;;;;;;;10274429;28;20084;-65
2021/10/08 05:15:48;;;;;;;37.90;10.25;;;;;;;;;;10278081;28;20045;-65
2021/10/08 05:20:47;;;;;;;25.88;8.32;;;;;;;;;;10276170;28;20048;-65
2021/10/08 05:25:46;;;;;;;18.58;10.07;;;;;;;;;;10276096;28;20052;-65
2021/10/08 05:30:46;;;;;;;28.17;10.10;;;;;;;;;;10277025;28;20105;-65
2021/10/08 05:35:47;;;;;;;38.00;9.90;;;;;;;;;;10275607;28;20083;-65
2021/10/08 05:40:48;;;;;;;28.02;9.52;;;;;;;;;;10277267;28;20060;-65
2021/10/08 05:45:50;;;;;;;34.90;11.82;;;;;;;;;;10275995;28;20057;-65
2021/10/08 05:50:49;;;;;;;33.65;7.60;;;;;;;;;;10276480;28;20095;-65
2021/10/08 05:55:49;;;;;;;32.78;9.68;;;;;;;;;;10276610;28;20048;-65
2021/10/08 06:00:47;;;;;;;25.42;8.02;;;;;;;;;;10276166;28;20055;-65
2021/10/08 06:05:48;;;;;;;33.58;8.35;;;;;;;;;;10276219;28;20048;-66
2021/10/08 06:10:46;;;;;;;21.67;7.82;;;;;;;;;;10275969;28;20541;-64
2021/10/08 06:15:46;;;;;;;36.05;13.00;;;;;;;;;;10276584;28;20426;-64
2021/10/08 06:20:45;;;;;;;52.70;25.00;;;;;;;;;;10276430;28;20045;-67
2021/10/08 06:25:49;;;;;;;43.00;16.67;;;;;;;;;;10275338;28;20071;-67
2021/10/08 06:30:52;;;;;;;45.00;16.58;;;;;;;;;;10275802;28;20049;-67
2021/10/08 06:35:51;;;;;;;30.20;9.63;;;;;;;;;;10295758;28;20087;-67
2021/10/08 06:40:53;;;;;;;30.73;9.10;;;;;;;;;;10309323;28;20386;-65
2021/10/08 06:45:51;;;;;;;35.92;9.07;;;;;;;;;;10316777;28;20091;-66
2021/10/08 06:50:51;;;;;;;28.55;8.90;;;;;;;;;;10313320;28;20095;-65
2021/10/08 06:55:49;;;;;;;21.48;7.40;;;;;;;;;;10314619;28;20422;-66
2021/10/08 07:01:04;;;;;;;30.17;6.97;;;;;;;;;;10314014;28;20536;-67
2021/10/08 07:06:04;;;;;;;26.38;7.97;;;;;;;;;;10313622;28;20060;-66
2021/10/08 07:11:02;;;;;;;32.58;8.38;;;;;;;;;;10314169;28;20083;-65
2021/10/08 07:16:01;;;;;;;20.27;7.22;;;;;;;;;;10315161;28;20421;-65
2021/10/08 07:21:13;;;;;;;20.45;7.50;;;;;;;;;;10314690;28;20075;-65
2021/10/08 07:26:12;;;;;;;27.48;8.50;;;;;;;;;;10315180;28;20043;-64
2021/10/08 07:31:11;;;;;;;25.42;7.88;;;;;;;;;;10314417;28;20084;-64
2021/10/08 07:36:11;;;;;;;21.65;9.65;;;;;;;;;;10314071;28;20053;-64
2021/10/08 07:41:11;;;;;;;23.08;8.07;;;;;;;;;;10314980;28;20060;-64
2021/10/08 07:46:10;;;;;;;25.30;7.93;;;;;;;;;;10315250;28;20052;-65
2021/10/08 07:51:08;;;;;;;29.38;7.32;;;;;;;;;;10315269;28;20067;-65
2021/10/08 07:56:06;;;;;;;33.58;8.02;;;;;;;;;;10315770;28;21256;-64
2021/10/08 08:01:06;;;;;;;26.88;8.18;;;;;;;;;;10314977;28;20041;-64
2021/10/08 08:06:04;;;;;;;25.15;8.10;;;;;;;;;;10315137;28;20048;-65
2021/10/08 08:11:03;;;;;;;24.95;8.85;;;;;;;;;;10319086;28;20076;-65
2021/10/08 08:16:01;;;;;;;32.47;8.73;;;;;;;;;;10321848;28;20032;-65
2021/10/08 08:21:01;;;;;;;25.48;8.75;;;;;;;;;;10321869;28;20510;-66
2021/10/08 08:25:59;;;;;;;31.85;7.38;;;;;;;;;;10322367;28;20087;-65
2021/10/08 08:30:58;;;;;;;22.77;8.48;;;;;;;;;;10321984;28;20095;-65
2021/10/08 08:35:56;;;;;;;23.23;6.65;;;;;;;;;;10321132;28;20075;-65
2021/10/08 08:40:56;;;;;;;26.13;8.25;;;;;;;;;;10320411;28;20077;-66
2021/10/08 08:45:54;;;;;;;23.88;7.00;;;;;;;;;;10321181;28;20506;-65
2021/10/08 08:50:53;;;;;;;34.90;7.55;;;;;;;;;;10321612;28;20076;-65
2021/10/08 08:55:51;;;;;;;40.05;13.75;;;;;;;;;;10320745;28;20087;-66
2021/10/08 09:00:57;;;;;;;26.17;8.60;;;;;;;;;;10320354;28;20053;-64
2021/10/08 09:05:55;;;;;;;21.05;8.95;;;;;;;;;;10320090;28;20052;-65
2021/10/08 09:10:53;;;;;;;29.48;8.45;;;;;;;;;;10320598;28;20073;-64
2021/10/08 09:15:55;;;;;;;45.13;12.57;;;;;;;;;;10320169;28;20086;-64
2021/10/08 09:21:05;;;;;;;40.72;12.52;;;;;;;;;;10320043;28;20080;-64
2021/10/08 09:26:05;;;;;;;31.75;12.38;;;;;;;;;;10320061;28;20048;-65
2021/10/08 09:31:09;;;;;;;37.13;10.27;;;;;;;;;;10319358;28;20492;-65
2021/10/08 09:36:13;;;;;;;28.30;8.13;;;;;;;;;;10319326;28;20040;-65
2021/10/08 09:41:11;;;;;;;22.38;8.02;;;;;;;;;;10320093;28;20049;-66
2021/10/08 09:46:19;;;;;;;25.90;8.77;;;;;;;;;;10318978;28;20040;-64
2021/10/08 09:51:23;;;;;;;29.92;9.48;;;;;;;;;;10318305;28;20080;-64
2021/10/08 09:56:29;;;;;;;28.67;7.85;;;;;;;;;;10318437;28;20049;-65
2021/10/08 10:01:27;;;;;;;30.90;7.60;;;;;;;;;;10318077;28;20051;-64
2021/10/08 10:06:27;;;;;;;25.95;7.32;;;;;;;;;;10318054;28;20045;-64
2021/10/08 10:11:26;;;;;;;41.78;9.43;;;;;;;;;;10316747;28;20469;-65
2021/10/08 10:16:25;;;;;;;29.60;7.25;;;;;;;;;;10317321;28;20083;-64
2021/10/08 10:21:24;;;;;;;31.65;7.95;;;;;;;;;;10317453;28;20048;-65
2021/10/08 10:26:26;;;;;;;34.10;8.15;;;;;;;;;;10317858;28;20055;-65
2021/10/08 10:31:24;;;;;;;21.88;7.00;;;;;;;;;;10316991;28;20103;-65
2021/10/08 10:36:23;;;;;;;22.35;7.38;;;;;;;;;;10317046;28;20072;-65
2021/10/08 10:41:24;;;;;;;26.92;7.97;;;;;;;;;;10316950;28;20055;-65
2021/10/08 10:46:28;;;;;;;33.30;9.13;;;;;;;;;;10315541;28;20095;-65
2021/10/08 10:51:27;;;;;;;15.15;7.60;;;;;;;;;;10316569;28;20568;-65
2021/10/08 10:56:42;;;;;;;17.92;9.10;;;;;;;;;;10316513;28;20047;-65
2021/10/08 11:01:57;;;;;;;45.40;12.77;;;;;;;;;;10316510;28;20068;-66
2021/10/08 11:07:05;;;;;;;37.53;10.02;;;;;;;;;;10317239;28;20174;-65
2021/10/08 11:12:22;;;;;;;22.33;9.40;;;;;;;;;;10315327;28;20110;-65
2021/10/08 11:17:35;;;;;;;35.72;16.05;;;;;;;;;;10315981;28;20080;-65
2021/10/08 11:22:47;;;;;;;23.92;10.63;;;;;;;;;;10301209;28;20496;-65
2021/10/08 11:27:46;;;;;;;26.65;9.02;;;;;;;;;;10315279;28;20052;-65
2021/10/08 11:32:45;;;;;;;30.70;9.07;;;;;;;;;;10314620;28;20505;-65
2021/10/08 11:37:44;;;;;;;36.28;9.60;;;;;;;;;;10315436;28;20087;-66
2021/10/08 11:42:51;;;;;;;25.42;8.57;;;;;;;;;;10314932;28;20048;-66
2021/10/08 11:47:51;;;;;;;26.08;7.78;;;;;;;;;;10320425;28;20075;-65
2021/10/08 11:52:49;;;;;;;21.40;9.70;;;;;;;;;;10320301;28;20094;-66
2021/10/08 11:57:56;;;;;;;32.10;8.27;;;;;;;;;;10320044;28;20072;-65
2021/10/08 12:02:58;;;;;;;35.72;9.93;;;;;;;;;;10321371;28;20088;-66
2021/10/08 12:08:01;;;;;;;36.60;10.27;;;;;;;;;;10322192;28;20051;-66
2021/10/08 12:13:02;;;;;;;43.33;11.00;;;;;;;;;;10322275;28;20103;-64
2021/10/08 12:18:02;;;;;;;44.40;12.30;;;;;;;;;;10322369;28;20048;-66
2021/10/08 12:23:18;;;;;;;20.85;9.82;;;;;;;;;;10321062;28;20041;-65
2021/10/08 12:28:19;;;;;;;42.53;10.43;;;;;;;;;;10321725;28;20041;-65
2021/10/08 12:33:23;;;;;;;28.25;8.82;;;;;;;;;;10321677;28;20175;-66
2021/10/08 12:38:25;;;;;;;56.55;23.00;;;;;;;;;;10320566;28;20434;-66
2021/10/08 12:43:25;;;;;;;44.67;11.63;;;;;;;;;;10319706;28;20044;-65
2021/10/08 12:48:23;;;;;;;41.40;8.20;;;;;;;;;;10319851;28;20052;-65
2021/10/08 12:53:23;;;;;;;32.92;11.75;;;;;;;;;;10319624;28;20060;-65
2021/10/08 12:58:24;;;;;;;36.05;10.75;;;;;;;;;;10320659;28;20049;-65
2021/10/08 13:03:33;;;;;;;40.28;9.82;;;;;;;;;;10320490;28;20497;-65
2021/10/08 13:08:33;;;;;;;23.25;7.93;;;;;;;;;;10319653;28;20417;-65
2021/10/08 13:13:33;;;;;;;36.95;10.35;;;;;;;;;;10319047;28;20068;-65
2021/10/08 13:18:42;;;;;;;39.22;9.00;;;;;;;;;;10319497;28;20041;-65
2021/10/08 13:23:41;;;;;;;42.45;12.07;;;;;;;;;;10317575;28;20362;-65
2021/10/08 13:28:39;;;;;;;44.50;9.27;;;;;;;;;;10319868;28;20052;-65
2021/10/08 13:33:39;;;;;;;43.03;8.00;;;;;;;;;;10318243;28;20529;-65
2021/10/08 13:38:42;;;;;;;33.22;8.13;;;;;;;;;;10319295;28;20060;-65
2021/10/08 13:43:41;;;;;;;35.20;9.48;;;;;;;;;;10319041;28;20055;-65
2021/10/08 13:48:39;;;;;;;27.63;7.07;;;;;;;;;;10317871;28;20041;-65
2021/10/08 13:53:44;;;;;;;42.92;10.00;;;;;;;;;;10317885;28;20086;-65
2021/10/08 13:58:43;;;;;;;47.53;11.25;;;;;;;;;;10317606;28;20075;-66
2021/10/08 14:03:46;;;;;;;51.08;17.85;;;;;;;;;;10317500;28;20071;-65
2021/10/08 14:08:50;;;;;;;27.85;10.02;;;;;;;;;;10314340;28;20048;-63
2021/10/08 14:13:49;;;;;;;36.97;13.80;;;;;;;;;;10314146;28;20219;-64
2021/10/08 14:18:47;;;;;;;31.13;10.35;;;;;;;;;;10313309;28;20036;-64
2021/10/08 14:23:47;;;;;;;45.58;10.10;;;;;;;;;;10312622;28;20538;-65
2021/10/08 14:28:45;;;;;;;42.60;14.43;;;;;;;;;;10316015;28;20056;-64
2021/10/08 14:33:44;;;;;;;42.05;15.38;;;;;;;;;;10317054;28;20197;-64
2021/10/08 14:38:42;;;;;;;30.52;9.88;;;;;;;;;;10312689;28;20052;-63
2021/10/08 14:43:42;;;;;;;34.05;10.52;;;;;;;;;;10310823;28;20037;-64
2021/10/08 14:48:40;;;;;;;18.88;9.35;;;;;;;;;;10313184;28;20410;-63
2021/10/08 14:53:40;;;;;;;33.58;13.70;;;;;;;;;;10316055;28;20456;-64
2021/10/08 14:58:38;;;;;;;53.08;19.52;;;;;;;;;;10317019;28;20044;-64
2021/10/08 15:03:38;;;;;;;30.27;10.40;;;;;;;;;;10316725;28;20391;-64
2021/10/08 15:08:36;;;;;;;28.50;12.45;;;;;;;;;;10316607;28;20472;-65
2021/10/08 15:13:34;;;;;;;30.08;14.38;;;;;;;;;;10316365;28;20091;-65
2021/10/08 15:18:32;;;;;;;38.15;14.65;;;;;;;;;;10316145;28;20047;-65
2021/10/08 15:23:32;;;;;;;20.45;9.70;;;;;;;;;;10316609;28;20072;-65
2021/10/08 15:28:31;;;;;;;31.25;12.25;;;;;;;;;;10316371;28;20520;-65
2021/10/08 15:33:29;;;;;;;31.02;11.18;;;;;;;;;;10315927;28;20091;-65
2021/10/08 15:38:28;;;;;;;108.38;72.25;;;;;;;;;;10315263;28;20040;-66
2021/10/08 15:43:28;;;;;;;25.67;11.43;;;;;;;;;;10315299;28;20063;-65
2021/10/08 15:48:29;;;;;;;31.38;14.88;;;;;;;;;;10313540;28;20072;-65
2021/10/08 15:53:27;;;;;;;27.52;9.65;;;;;;;;;;10310042;28;20505;-65
2021/10/08 15:58:26;;;;;;;37.45;13.90;;;;;;;;;;10312150;28;20082;-64
2021/10/08 16:03:26;;;;;;;29.23;12.52;;;;;;;;;;10311032;28;20095;-65
2021/10/08 16:08:24;;;;;;;36.80;14.00;;;;;;;;;;10311652;28;20079;-65
2021/10/08 16:13:23;;;;;;;33.25;13.48;;;;;;;;;;10311273;28;20079;-65
2021/10/08 16:18:27;;;;;;;38.33;12.63;;;;;;;;;;10313703;28;20090;-65
2021/10/08 16:23:26;;;;;;;22.23;11.70;;;;;;;;;;10315438;28;20064;-65
2021/10/08 16:28:25;;;;;;;27.05;11.88;;;;;;;;;;10315077;28;20056;-65
2021/10/08 16:33:23;;;;;;;25.90;14.25;;;;;;;;;;10320481;28;20088;-65
2021/10/08 16:38:22;;;;;;;37.70;14.02;;;;;;;;;;10322424;28;20047;-65
2021/10/08 16:43:27;;;;;;;40.03;20.87;;;;;;;;;;10322342;28;20083;-65
2021/10/08 16:48:25;;;;;;;26.17;11.15;;;;;;;;;;10321857;28;20436;-64
2021/10/08 16:53:25;;;;;;;26.42;10.40;;;;;;;;;;10321778;28;20128;-65
2021/10/08 16:58:23;;;;;;;27.88;13.23;;;;;;;;;;10321292;28;20052;-65
2021/10/08 17:03:23;;;;;;;25.35;13.68;;;;;;;;;;10321635;28;20080;-65
2021/10/08 17:08:21;;;;;;;30.63;9.75;;;;;;;;;;10321077;28;20053;-65
2021/10/08 17:13:19;;;;;;;29.27;11.65;;;;;;;;;;10320848;28;20044;-65
2021/10/08 17:18:17;;;;;;;28.77;14.40;;;;;;;;;;10320557;28;20047;-65
2021/10/08 17:23:18;;;;;;;32.97;12.55;;;;;;;;;;10320593;28;20064;-64
2021/10/08 17:28:27;;;;;;;34.35;12.40;;;;;;;;;;10320558;28;20044;-65
2021/10/08 17:38:42;;;;;;;28.10;9.60;;;;;;;;;;10319971;28;20052;-64
2021/10/08 17:43:40;;;;;;;23.27;10.00;;;;;;;;;;10319708;28;20041;-64
2021/10/08 17:48:40;;;;;;;38.40;14.80;;;;;;;;;;10319384;28;20049;-65
2021/10/08 17:53:39;;;;;;;28.38;15.27;;;;;;;;;;10319248;28;20080;-64
2021/10/08 17:58:39;;;;;;;26.30;10.57;;;;;;;;;;10319140;28;20076;-65
2021/10/08 18:03:39;;;;;;;25.63;12.88;;;;;;;;;;10318937;28;20520;-65
2021/10/08 18:08:37;;;;;;;27.90;11.05;;;;;;;;;;10318978;28;20080;-65
2021/10/08 18:13:36;;;;;;;21.52;11.93;;;;;;;;;;10318593;28;20090;-65
2021/10/08 18:18:35;;;;;;;17.17;9.73;;;;;;;;;;10318491;28;20051;-65
2021/10/08 18:23:34;;;;;;;26.02;9.27;;;;;;;;;;10318241;28;20040;-64
2021/10/08 18:28:32;;;;;;;24.23;9.68;;;;;;;;;;10318021;28;20041;-63
2021/10/08 18:33:31;;;;;;;28.80;12.95;;;;;;;;;;10317360;28;20501;-64
2021/10/08 18:38:31;;;;;;;18.70;9.00;;;;;;;;;;10318086;28;20036;-64
2021/10/08 18:43:29;;;;;;;23.50;11.73;;;;;;;;;;10317036;28;20044;-64
2021/10/08 18:48:28;;;;;;;36.90;16.92;;;;;;;;;;10315855;28;20045;-64
2021/10/08 18:53:26;;;;;;;24.13;16.25;;;;;;;;;;10316749;28;20071;-63
2021/10/08 18:58:26;;;;;;;19.13;10.75;;;;;;;;;;10317429;28;20434;-64
2021/10/08 19:03:25;;;;;;;26.55;10.82;;;;;;;;;;10316853;28;20465;-64
2021/10/08 19:08:25;;;;;;;32.85;12.23;;;;;;;;;;10317212;28;20044;-63
2021/10/08 19:13:27;;;;;;;31.20;10.88;;;;;;;;;;10316618;28;20455;-63
2021/10/08 19:18:35;;;;;;;26.95;11.57;;;;;;;;;;10316123;28;20052;-64
2021/10/08 19:23:33;;;;;;;18.08;10.57;;;;;;;;;;10316928;28;20044;-64
2021/10/08 19:28:32;;;;;;;27.20;12.10;;;;;;;;;;10316634;28;20049;-64
2021/10/08 19:33:31;;;;;;;20.40;10.80;;;;;;;;;;10315963;28;20091;-64
2021/10/08 19:38:29;;;;;;;22.08;11.20;;;;;;;;;;10316631;28;20036;-64
2021/10/08 19:43:29;;;;;;;31.73;12.40;;;;;;;;;;10316202;28;20081;-64
2021/10/08 19:48:27;;;;;;;18.55;9.35;;;;;;;;;;10316264;28;20040;-64
2021/10/08 19:53:29;;;;;;;24.27;8.95;;;;;;;;;;10316330;28;20044;-64
2021/10/08 19:58:28;;;;;;;19.13;9.13;;;;;;;;;;10314807;28;20153;-64
2021/10/08 20:03:28;;;;;;;24.23;12.20;;;;;;;;;;10315937;28;20524;-64
2021/10/08 20:13:58;;;;;;;18.45;10.73;;;;;;;;;;10156616;28;20531;-63
2021/10/08 20:18:56;;;;;;;30.17;12.77;;;;;;;;;;10280379;28;20049;-64
2021/10/08 20:23:56;;;;;;;31.92;19.27;;;;;;;;;;10322676;28;20088;-65
2021/10/08 20:28:54;;;;;;;27.00;9.98;;;;;;;;;;10322968;28;20056;-65
2021/10/08 20:33:52;;;;;;;20.17;10.48;;;;;;;;;;10322612;28;20087;-63
2021/10/08 20:38:52;;;;;;;26.30;10.70;;;;;;;;;;10321888;28;20041;-64
2021/10/08 20:43:52;;;;;;;26.27;11.75;;;;;;;;;;10322264;28;20044;-63
2021/10/08 20:48:50;;;;;;;26.35;11.10;;;;;;;;;;10321944;28;20059;-63
2021/10/08 20:53:49;;;;;;;29.35;10.32;;;;;;;;;;10321789;28;20076;-64
2021/10/08 20:58:47;;;;;;;35.10;13.57;;;;;;;;;;10321762;28;20044;-63
2021/10/08 21:03:47;;;;;;;27.70;13.57;;;;;;;;;;10321769;28;20406;-64
2021/10/08 21:08:45;;;;;;;23.58;11.65;;;;;;;;;;10321325;28;20060;-64
2021/10/08 21:13:44;;;;;;;23.52;10.75;;;;;;;;;;10320971;28;20060;-64
2021/10/08 21:18:42;;;;;;;20.20;10.35;;;;;;;;;;10320166;28;20139;-64
2021/10/08 21:23:42;;;;;;;26.33;10.60;;;;;;;;;;10320952;28;20405;-63
2021/10/08 21:28:40;;;;;;;22.88;9.18;;;;;;;;;;10320501;28;20045;-63
2021/10/08 21:33:40;;;;;;;19.75;7.55;;;;;;;;;;10320413;28;20099;-64
2021/10/08 21:38:44;;;;;;;20.02;7.88;;;;;;;;;;10319856;28;20075;-63
2021/10/08 21:43:49;;;;;;;21.13;7.97;;;;;;;;;;10319480;28;20456;-63
2021/10/08 21:48:47;;;;;;;19.40;6.72;;;;;;;;;;10319029;28;20128;-63
2021/10/08 21:53:45;;;;;;;14.05;6.30;;;;;;;;;;10319102;28;20036;-63
2021/10/08 21:58:45;;;;;;;19.00;6.30;;;;;;;;;;10318847;28;20067;-64
2021/10/08 22:03:43;;;;;;;20.90;6.20;;;;;;;;;;10319165;28;20040;-64
2021/10/08 22:08:42;;;;;;;14.80;6.10;;;;;;;;;;10318843;28;20079;-64
2021/10/08 22:13:42;;;;;;;19.42;6.40;;;;;;;;;;10318785;28;20383;-64
2021/10/08 22:18:48;;;;;;;15.82;6.55;;;;;;;;;;10318628;28;20071;-64
2021/10/08 22:23:52;;;;;;;23.20;7.68;;;;;;;;;;10318664;28;20060;-64
2021/10/08 22:33:24;;;;;;;17.98;6.35;;;;;;;;;;10317814;28;20064;-64
2021/10/08 22:34:18;;;;;;;17.55;6.93;;;;;;;;;;10318444;28;20057;-64
2021/10/08 22:39:17;;;;;;;17.80;6.85;;;;;;;;;;10317529;28;20472;-64
2021/10/08 22:44:16;;;;;;;19.48;7.05;;;;;;;;;;10317674;28;20044;-63
2021/10/08 22:49:14;;;;;;;25.35;9.02;;;;;;;;;;10317764;28;20068;-64
2021/10/08 22:54:14;;;;;;;19.95;8.02;;;;;;;;;;10316584;28;20079;-64
2021/10/08 22:59:12;;;;;;;17.52;7.40;;;;;;;;;;10317165;28;20509;-64
2021/10/08 23:04:11;;;;;;;19.10;8.05;;;;;;;;;;10317031;28;20486;-63
2021/10/08 23:09:16;;;;;;;16.70;7.05;;;;;;;;;;10316044;28;20068;-64
2021/10/08 23:14:24;;;;;;;13.13;5.85;;;;;;;;;;10316887;28;20076;-64
2021/10/08 23:19:22;;;;;;;15.30;6.28;;;;;;;;;;10316797;28;20055;-63
2021/10/08 23:24:21;;;;;;;19.77;6.78;;;;;;;;;;10316822;28;20080;-63
2021/10/08 23:29:20;;;;;;;19.55;7.28;;;;;;;;;;10316677;28;20103;-64
2021/10/08 23:34:18;;;;;;;9.95;6.43;;;;;;;;;;10316484;28;20056;-64
2021/10/08 23:39:17;;;;;;;16.90;7.88;;;;;;;;;;10317294;28;20072;-65
2021/10/08 23:44:15;;;;;;;20.52;7.00;;;;;;;;;;10324980;28;20139;-64
2021/10/08 23:49:15;;;;;;;20.35;7.78;;;;;;;;;;10324637;28;20052;-64
2021/10/08 23:54:13;;;;;;;14.82;6.72;;;;;;;;;;10324430;28;20055;-65
2021/10/08 23:59:11;;;;;;;18.80;7.13;;;;;;;;;;10324334;28;20079;-64
